Time;durP1;ratioP1;P1;durP2;ratioP2;P2;SDS_P1;SDS_P2;PMS_P1;PMS_P2;Temp;Humidity;BMP_temperature;BMP_pressure;BME280_temperature;BME280_humidity;BME280_pressure;Samples;Min_cycle;Max_cycle;Signal;HPM_P1;HPM_P2
2023/07/04 00:00:34;;;;;;;;;;;19.60;71.20;;;;;;4011951;29;19931;-49
2023/07/04 00:03:14;;;;;;;;;;;19.50;71.20;;;;;;4008001;29;20402;-49
2023/07/04 00:05:55;;;;;;;;;;;19.50;71.30;;;;;;4011700;29;19958;-48
2023/07/04 00:08:37;;;;;;;;;;;19.50;71.30;;;;;;4012386;29;19931;-48
2023/07/04 00:11:20;;;;;;;;;;;19.50;71.40;;;;;;4012336;29;19935;-47
2023/07/04 00:14:00;;;;;;;;;;;19.50;71.40;;;;;;4015385;29;19931;-45
2023/07/04 00:16:41;;;;;;;;;;;19.50;71.40;;;;;;4015027;29;19935;-49
2023/07/04 00:19:22;;;;;;;;;;;19.50;72.30;;;;;;4000217;29;20404;-50
2023/07/04 00:22:04;;;;;;;;;;;19.50;71.50;;;;;;4002294;29;19949;-50
2023/07/04 00:24:47;;;;;;;;;;;19.50;71.50;;;;;;4015223;29;20366;-51
2023/07/04 00:27:28;;;;;;;;;;;19.50;71.60;;;;;;4014590;29;19935;-51
2023/07/04 00:30:10;;;;;;;;;;;19.50;71.50;;;;;;4014957;29;19931;-48
2023/07/04 00:32:51;;;;;;;;;;;19.50;71.50;;;;;;4003417;29;20469;-49
2023/07/04 00:35:32;;;;;;;;;;;19.50;71.60;;;;;;3988150;29;19996;-51
2023/07/04 00:38:13;;;;;;;;;;;19.40;71.60;;;;;;3998836;29;20390;-51
2023/07/04 00:40:55;;;;;;;;;;;19.40;71.60;;;;;;4005565;29;20030;-50
2023/07/04 00:43:56;;;;;;;;;;;19.40;72.50;;;;;;4014636;29;19931;-52
2023/07/04 00:46:38;;;;;;;;;;;19.40;71.60;;;;;;4014272;29;20286;-49
2023/07/04 00:49:22;;;;;;;;;;;19.40;71.70;;;;;;4014386;29;19934;-49
2023/07/04 00:52:05;;;;;;;;;;;19.40;71.70;;;;;;4003364;29;20019;-52
2023/07/04 00:54:52;;;;;;;;;;;19.40;71.70;;;;;;4014892;29;19934;-51
2023/07/04 00:57:37;;;;;;;;;;;19.40;71.80;;;;;;4003292;29;19931;-48
2023/07/04 01:00:20;;;;;;;;;;;19.40;72.70;;;;;;4003550;29;19987;-48
2023/07/04 01:03:02;;;;;;;;;;;19.40;71.80;;;;;;4014416;29;20003;-50
2023/07/04 01:05:48;;;;;;;;;;;19.40;71.90;;;;;;4002716;29;19935;-48
2023/07/04 01:08:33;;;;;;;;;;;19.40;71.90;;;;;;3998647;29;19935;-48
2023/07/04 01:11:16;;;;;;;;;;;19.40;71.90;;;;;;3998487;29;19935;-50
2023/07/04 01:13:57;;;;;;;;;;;19.40;71.90;;;;;;3987593;29;20554;-49
2023/07/04 01:16:38;;;;;;;;;;;19.40;72.10;;;;;;3987729;29;19931;-48
2023/07/04 01:19:24;;;;;;;;;;;19.40;72.00;;;;;;4004365;29;20295;-47
2023/07/04 01:22:09;;;;;;;;;;;19.40;72.10;;;;;;4002283;29;20345;-48
2023/07/04 01:24:55;;;;;;;;;;;19.40;72.10;;;;;;3987214;29;20288;-48
2023/07/04 01:27:37;;;;;;;;;;;19.40;72.20;;;;;;3987539;29;20380;-49
2023/07/04 01:30:18;;;;;;;;;;;19.30;72.10;;;;;;3996887;29;19935;-48
2023/07/04 01:32:59;;;;;;;;;;;19.30;72.20;;;;;;3993966;29;19931;-48
2023/07/04 01:35:40;;;;;;;;;;;19.30;73.10;;;;;;4014454;29;19931;-49
2023/07/04 01:38:21;;;;;;;;;;;19.30;72.20;;;;;;4002189;29;19957;-45
2023/07/04 01:41:02;;;;;;;;;;;19.30;72.10;;;;;;3998480;29;20012;-44
2023/07/04 01:43:46;;;;;;;;;;;19.30;72.10;;;;;;4002117;29;19931;-45
2023/07/04 01:46:27;;;;;;;;;;;19.30;72.10;;;;;;4002747;29;19935;-43
2023/07/04 01:49:09;;;;;;;;;;;19.30;72.10;;;;;;4002338;29;19966;-43
2023/07/04 01:51:49;;;;;;;;;;;19.30;72.90;;;;;;4009832;29;19931;-45
2023/07/04 01:54:30;;;;;;;;;;;19.30;72.10;;;;;;4013659;29;19935;-44
2023/07/04 01:57:13;;;;;;;;;;;19.20;72.90;;;;;;3998415;29;19979;-45
2023/07/04 01:59:56;;;;;;;;;;;19.20;72.00;;;;;;3982741;29;19935;-46
2023/07/04 02:02:36;;;;;;;;;;;19.20;72.00;;;;;;4001929;29;19931;-44
2023/07/04 02:05:19;;;;;;;;;;;19.20;72.10;;;;;;4001779;29;20391;-45
2023/07/04 02:08:01;;;;;;;;;;;19.10;73.00;;;;;;4013568;29;19950;-44
2023/07/04 02:10:41;;;;;;;;;;;19.20;72.20;;;;;;3986953;29;19976;-43
2023/07/04 02:13:22;;;;;;;;;;;19.20;72.20;;;;;;3988184;29;20444;-49
2023/07/04 02:16:04;;;;;;;;;;;19.10;73.10;;;;;;3986764;29;19936;-49
2023/07/04 02:18:45;;;;;;;;;;;19.10;72.20;;;;;;3988441;29;20012;-48
2023/07/04 02:21:26;;;;;;;;;;;19.10;72.20;;;;;;4013332;29;19934;-50
2023/07/04 02:24:07;;;;;;;;;;;19.10;72.20;;;;;;4012337;29;20395;-51
2023/07/04 02:26:49;;;;;;;;;;;19.10;72.20;;;;;;4001619;29;19931;-48
2023/07/04 02:29:30;;;;;;;;;;;19.10;72.20;;;;;;4011704;29;20402;-53
2023/07/04 02:32:13;;;;;;;;;;;19.10;72.30;;;;;;4001535;29;19931;-52
2023/07/04 02:34:53;;;;;;;;;;;19.10;72.30;;;;;;4001429;29;19950;-47
2023/07/04 02:37:34;;;;;;;;;;;19.10;72.20;;;;;;4012621;29;20424;-51
2023/07/04 02:40:14;;;;;;;;;;;19.10;72.30;;;;;;4001734;29;19934;-48
2023/07/04 02:42:58;;;;;;;;;;;19.10;72.30;;;;;;4012896;29;19931;-48
2023/07/04 02:45:39;;;;;;;;;;;19.10;72.20;;;;;;3996744;29;19936;-51
2023/07/04 02:48:25;;;;;;;;;;;19.10;72.30;;;;;;3992978;29;19935;-49
2023/07/04 02:51:06;;;;;;;;;;;19.10;72.30;;;;;;4001172;29;19935;-51
2023/07/04 02:53:47;;;;;;;;;;;19.10;72.30;;;;;;3991027;29;20045;-48
2023/07/04 02:56:28;;;;;;;;;;;19.10;72.40;;;;;;4012900;29;19994;-48
2023/07/04 02:59:08;;;;;;;;;;;19.00;72.30;;;;;;4013393;29;19935;-48
2023/07/04 03:01:51;;;;;;;;;;;19.10;72.40;;;;;;3986424;29;20030;-51
2023/07/04 03:04:33;;;;;;;;;;;19.10;72.40;;;;;;3984724;29;19931;-48
2023/07/04 03:07:15;;;;;;;;;;;19.10;72.40;;;;;;3985932;29;19931;-47
2023/07/04 03:09:56;;;;;;;;;;;19.10;73.30;;;;;;3986323;29;20061;-48
2023/07/04 03:12:41;;;;;;;;;;;19.10;72.50;;;;;;3997814;29;19935;-48
2023/07/04 03:15:22;;;;;;;;;;;19.10;72.50;;;;;;3985929;29;19984;-48
2023/07/04 03:18:05;;;;;;;;;;;19.10;72.50;;;;;;4000299;29;19935;-49
2023/07/04 03:20:50;;;;;;;;;;;19.10;72.50;;;;;;3988064;29;20020;-47
2023/07/04 03:23:31;;;;;;;;;;;19.00;72.50;;;;;;4001654;29;19931;-48
2023/07/04 03:26:12;;;;;;;;;;;19.00;72.50;;;;;;4012719;29;19934;-48
2023/07/04 03:28:53;;;;;;;;;;;19.00;72.60;;;;;;4001163;29;19935;-48
2023/07/04 03:31:34;;;;;;;;;;;19.00;72.80;;;;;;4000840;29;20303;-49
2023/07/04 03:34:16;;;;;;;;;;;19.00;72.90;;;;;;3985589;29;19935;-51
2023/07/04 03:36:58;;;;;;;;;;;19.00;72.90;;;;;;3986080;29;19997;-48
2023/07/04 03:39:39;;;;;;;;;;;19.00;74.00;;;;;;3986040;29;20379;-49
2023/07/04 03:42:19;;;;;;;;;;;19.00;73.20;;;;;;3986239;29;19935;-47
2023/07/04 03:45:00;;;;;;;;;;;19.00;73.20;;;;;;3997223;29;20403;-47
2023/07/04 03:47:41;;;;;;;;;;;19.00;73.40;;;;;;4007416;29;20287;-47
2023/07/04 03:50:23;;;;;;;;;;;19.00;73.40;;;;;;4000051;29;20023;-49
2023/07/04 03:53:04;;;;;;;;;;;19.00;73.50;;;;;;3999944;29;19935;-51
2023/07/04 03:55:46;;;;;;;;;;;19.00;73.50;;;;;;4011386;29;19931;-48
2023/07/04 03:58:26;;;;;;;;;;;18.90;73.50;;;;;;4011994;29;20052;-47
2023/07/04 04:01:07;;;;;;;;;;;19.00;73.50;;;;;;3999822;29;19984;-44
2023/07/04 04:03:47;;;;;;;;;;;18.90;73.50;;;;;;4003686;29;20420;-46
2023/07/04 04:06:29;;;;;;;;;;;18.90;73.40;;;;;;3985409;29;20370;-44
2023/07/04 04:09:11;;;;;;;;;;;18.90;73.50;;;;;;3998549;29;20387;-48
2023/07/04 04:11:51;;;;;;;;;;;18.90;73.50;;;;;;4011580;29;19931;-47
2023/07/04 04:14:32;;;;;;;;;;;18.90;73.40;;;;;;4000771;29;19991;-47
2023/07/04 04:17:13;;;;;;;;;;;18.90;73.50;;;;;;4011947;29;19937;-50
2023/07/04 04:19:54;;;;;;;;;;;18.90;73.50;;;;;;4010721;29;19935;-49
2023/07/04 04:22:35;;;;;;;;;;;18.90;73.50;;;;;;4000100;29;19971;-48
2023/07/04 04:25:17;;;;;;;;;;;18.90;73.60;;;;;;4011559;29;20307;-49
2023/07/04 04:27:58;;;;;;;;;;;18.90;73.60;;;;;;4011804;29;20027;-50
2023/07/04 04:30:39;;;;;;;;;;;18.90;73.50;;;;;;4010311;29;20008;-48
2023/07/04 04:33:20;;;;;;;;;;;19.00;73.60;;;;;;4011535;29;19946;-48
2023/07/04 04:36:02;;;;;;;;;;;18.90;73.50;;;;;;4007872;29;19935;-44
2023/07/04 04:38:43;;;;;;;;;;;19.00;73.50;;;;;;3996582;29;19932;-46
2023/07/04 04:41:25;;;;;;;;;;;18.90;73.40;;;;;;4009064;29;19930;-47
2023/07/04 04:44:06;;;;;;;;;;;19.00;73.50;;;;;;4012063;29;19931;-46
2023/07/04 04:46:48;;;;;;;;;;;19.00;73.50;;;;;;4012025;29;19935;-43
2023/07/04 04:49:29;;;;;;;;;;;19.00;73.50;;;;;;4012021;29;20046;-45
2023/07/04 04:52:12;;;;;;;;;;;19.00;73.70;;;;;;3997757;29;19931;-44
2023/07/04 04:54:52;;;;;;;;;;;19.00;73.80;;;;;;3996458;29;19931;-46
2023/07/04 04:57:35;;;;;;;;;;;19.10;73.90;;;;;;3997166;29;19944;-48
2023/07/04 05:00:17;;;;;;;;;;;19.10;73.90;;;;;;3996218;29;20461;-51
2023/07/04 05:02:58;;;;;;;;;;;19.00;73.90;;;;;;4014016;29;19931;-51
2023/07/04 05:05:39;;;;;;;;;;;19.00;74.00;;;;;;4014341;29;19934;-47
2023/07/04 05:08:20;;;;;;;;;;;19.10;74.30;;;;;;4014517;29;20592;-48
2023/07/04 05:11:02;;;;;;;;;;;19.10;77.00;;;;;;4013973;29;20027;-48
2023/07/04 05:13:45;;;;;;;;;;;19.10;79.50;;;;;;4010529;29;19972;-49
2023/07/04 05:16:26;;;;;;;;;;;19.10;82.20;;;;;;3998112;29;20611;-44
2023/07/04 05:19:07;;;;;;;;;;;19.10;82.60;;;;;;3999213;29;20016;-44
2023/07/04 05:21:48;;;;;;;;;;;19.10;81.30;;;;;;4014785;29;20427;-42
2023/07/04 05:24:30;;;;;;;;;;;19.10;80.00;;;;;;4006698;29;19993;-43
2023/07/04 05:27:11;;;;;;;;;;;19.10;79.00;;;;;;3998882;29;19931;-48
2023/07/04 05:29:53;;;;;;;;;;;19.10;78.60;;;;;;4003533;29;20370;-47
2023/07/04 05:32:34;;;;;;;;;;;19.10;79.00;;;;;;4013798;29;19931;-47
2023/07/04 05:35:15;;;;;;;;;;;19.10;77.80;;;;;;4014438;29;20019;-48
2023/07/04 05:37:56;;;;;;;;;;;19.00;77.50;;;;;;4013066;29;19934;-44
2023/07/04 05:40:39;;;;;;;;;;;19.10;77.30;;;;;;4002925;29;19944;-44
2023/07/04 05:43:20;;;;;;;;;;;19.10;77.10;;;;;;3998966;29;20430;-44
2023/07/04 05:46:02;;;;;;;;;;;19.10;77.00;;;;;;4005086;29;19979;-45
2023/07/04 05:48:43;;;;;;;;;;;19.10;76.90;;;;;;4013901;29;19958;-42
2023/07/04 05:51:24;;;;;;;;;;;19.10;77.70;;;;;;3998515;29;19935;-44
2023/07/04 05:54:05;;;;;;;;;;;19.00;76.60;;;;;;4014338;29;19930;-43
2023/07/04 05:56:51;;;;;;;;;;;19.10;76.60;;;;;;4010519;29;19931;-43
2023/07/04 05:59:31;;;;;;;;;;;19.10;76.60;;;;;;3987183;29;20044;-44
2023/07/04 06:02:14;;;;;;;;;;;19.00;76.50;;;;;;4005197;29;19982;-44
2023/07/04 06:04:55;;;;;;;;;;;19.10;76.60;;;;;;4010343;29;19950;-43
2023/07/04 06:07:36;;;;;;;;;;;19.10;76.60;;;;;;4012331;29;19935;-42
2023/07/04 06:10:16;;;;;;;;;;;19.10;76.60;;;;;;4010481;29;19983;-46
2023/07/04 06:12:57;;;;;;;;;;;19.10;76.60;;;;;;4013243;29;19939;-43
2023/07/04 06:15:41;;;;;;;;;;;19.10;76.70;;;;;;4015881;29;20295;-44
2023/07/04 06:18:23;;;;;;;;;;;19.10;76.80;;;;;;4001532;29;19931;-42
2023/07/04 06:21:11;;;;;;;;;;;19.10;76.80;;;;;;4011538;29;20064;-42
2023/07/04 06:23:54;;;;;;;;;;;19.10;77.10;;;;;;4007970;29;19935;-48
2023/07/04 06:26:35;;;;;;;;;;;19.20;77.00;;;;;;4005929;29;19988;-49
2023/07/04 06:29:16;;;;;;;;;;;19.10;76.90;;;;;;3997989;29;20061;-48
2023/07/04 06:31:56;;;;;;;;;;;19.10;76.70;;;;;;4009717;29;20012;-48
2023/07/04 06:34:38;;;;;;;;;;;19.20;76.70;;;;;;4012966;29;20033;-48
2023/07/04 06:37:19;;;;;;;;;;;19.20;76.60;;;;;;4001673;29;19975;-47
2023/07/04 06:40:01;;;;;;;;;;;19.20;76.40;;;;;;4012319;29;19959;-48
2023/07/04 06:42:42;;;;;;;;;;;19.20;76.30;;;;;;4001378;29;20028;-50
2023/07/04 06:45:23;;;;;;;;;;;19.20;76.20;;;;;;4012206;29;19935;-48
2023/07/04 06:48:03;;;;;;;;;;;19.20;76.10;;;;;;3997972;29;19963;-47
2023/07/04 06:50:55;;;;;;;;;;;19.30;76.10;;;;;;4003291;29;19932;-47
2023/07/04 06:53:36;;;;;;;;;;;19.30;75.90;;;;;;4010708;29;20443;-47
2023/07/04 06:56:18;;;;;;;;;;;19.30;75.70;;;;;;3999948;29;20474;-49
2023/07/04 06:58:59;;;;;;;;;;;19.30;75.60;;;;;;4001074;29;19931;-50
2023/07/04 07:01:42;;;;;;;;;;;19.30;75.50;;;;;;4012224;29;20299;-47
2023/07/04 07:04:23;;;;;;;;;;;19.30;75.40;;;;;;4018768;29;19934;-48
2023/07/04 07:07:08;;;;;;;;;;;19.30;75.40;;;;;;4027677;29;19931;-47
2023/07/04 07:09:50;;;;;;;;;;;19.40;76.30;;;;;;4027455;29;19931;-48
2023/07/04 07:12:31;;;;;;;;;;;19.40;75.50;;;;;;4027236;29;19934;-48
2023/07/04 07:15:12;;;;;;;;;;;19.40;75.30;;;;;;4001903;29;19938;-47
2023/07/04 07:17:53;;;;;;;;;;;19.50;75.30;;;;;;4010770;29;19931;-47
2023/07/04 07:20:33;;;;;;;;;;;19.50;75.20;;;;;;4012145;29;19931;-49
2023/07/04 07:23:15;;;;;;;;;;;19.60;75.00;;;;;;4012187;29;20069;-48
2023/07/04 07:25:56;;;;;;;;;;;19.60;74.60;;;;;;4011464;29;19935;-48
2023/07/04 07:28:38;;;;;;;;;;;19.60;74.40;;;;;;4011481;29;19931;-48
2023/07/04 07:31:20;;;;;;;;;;;19.60;74.00;;;;;;4011668;29;20379;-48
2023/07/04 07:34:01;;;;;;;;;;;19.60;74.90;;;;;;4011738;29;19935;-48
2023/07/04 07:36:42;;;;;;;;;;;19.60;73.90;;;;;;4011539;29;19931;-43
2023/07/04 07:39:25;;;;;;;;;;;19.60;73.90;;;;;;4011804;29;19931;-43
2023/07/04 07:42:05;;;;;;;;;;;19.60;74.60;;;;;;4011682;29;20425;-43
2023/07/04 07:44:46;;;;;;;;;;;19.60;73.70;;;;;;4000418;29;20482;-47
2023/07/04 07:47:27;;;;;;;;;;;19.60;73.70;;;;;;4011625;29;19950;-48
2023/07/04 07:50:09;;;;;;;;;;;19.60;73.50;;;;;;4011888;29;19933;-48
2023/07/04 07:52:49;;;;;;;;;;;19.60;73.40;;;;;;4011776;29;20635;-49
2023/07/04 07:55:31;;;;;;;;;;;19.60;73.30;;;;;;4011816;29;20056;-49
2023/07/04 07:58:12;;;;;;;;;;;19.60;73.90;;;;;;4011600;29;19947;-49
2023/07/04 08:00:53;;;;;;;;;;;19.60;72.80;;;;;;4011443;29;19935;-47
2023/07/04 08:03:34;;;;;;;;;;;19.60;72.40;;;;;;4011795;29;19934;-48
2023/07/04 08:06:20;;;;;;;;;;;19.60;73.10;;;;;;4010150;29;20406;-47
2023/07/04 08:09:01;;;;;;;;;;;19.60;72.10;;;;;;4010938;29;19934;-48
2023/07/04 08:11:45;;;;;;;;;;;19.60;71.90;;;;;;4010459;29;20076;-49
2023/07/04 08:14:26;;;;;;;;;;;19.60;71.70;;;;;;4009004;29;19931;-50
2023/07/04 08:17:06;;;;;;;;;;;19.60;71.60;;;;;;4011420;29;20522;-49
2023/07/04 08:19:47;;;;;;;;;;;19.60;72.50;;;;;;4013771;29;20391;-47
2023/07/04 08:22:28;;;;;;;;;;;19.60;71.80;;;;;;4007462;29;20383;-43
2023/07/04 08:25:10;;;;;;;;;;;19.60;71.80;;;;;;3998315;29;19935;-45
2023/07/04 08:27:52;;;;;;;;;;;19.60;71.60;;;;;;4001698;29;19935;-45
2023/07/04 08:30:32;;;;;;;;;;;19.60;71.50;;;;;;3999483;29;20056;-48
2023/07/04 08:33:16;;;;;;;;;;;19.60;71.20;;;;;;4011187;29;19934;-45
2023/07/04 08:35:58;;;;;;;;;;;19.60;70.80;;;;;;4014262;29;20386;-44
2023/07/04 08:38:39;;;;;;;;;;;19.70;70.40;;;;;;4014314;29;19931;-44
2023/07/04 08:41:24;;;;;;;;;;;19.70;69.80;;;;;;3999504;29;19932;-45
2023/07/04 08:44:09;;;;;;;;;;;19.70;69.40;;;;;;3999362;29;19932;-44
2023/07/04 08:46:51;;;;;;;;;;;19.70;69.10;;;;;;3999355;29;19935;-41
2023/07/04 08:49:34;;;;;;;;;;;19.70;68.80;;;;;;3998548;29;20275;-43
2023/07/04 08:52:17;;;;;;;;;;;19.70;69.10;;;;;;4010582;29;19951;-43
2023/07/04 08:54:58;;;;;;;;;;;19.70;68.90;;;;;;4014192;29;19979;-44
2023/07/04 08:57:40;;;;;;;;;;;19.80;68.80;;;;;;4014133;29;19979;-46
2023/07/04 09:00:28;;;;;;;;;;;19.80;68.60;;;;;;4013312;29;20071;-44
2023/07/04 09:03:15;;;;;;;;;;;19.80;69.20;;;;;;4014574;29;19971;-45
2023/07/04 09:06:00;;;;;;;;;;;19.80;68.20;;;;;;4014629;29;19934;-46
2023/07/04 09:08:59;;;;;;;;;;;19.80;67.90;;;;;;4002988;29;20402;-47
2023/07/04 09:11:39;;;;;;;;;;;19.90;67.80;;;;;;3998472;29;20703;-48
2023/07/04 09:14:24;;;;;;;;;;;19.90;67.50;;;;;;3999458;29;20041;-48
2023/07/04 09:17:13;;;;;;;;;;;19.90;67.30;;;;;;4010488;29;20036;-49
2023/07/04 09:19:55;;;;;;;;;;;19.90;67.10;;;;;;4013463;29;20395;-49
2023/07/04 09:22:36;;;;;;;;;;;19.90;67.40;;;;;;4013934;29;19970;-49
2023/07/04 09:25:18;;;;;;;;;;;20.00;66.00;;;;;;4013749;29;19935;-47
2023/07/04 09:27:59;;;;;;;;;;;20.00;65.50;;;;;;4013453;29;20323;-47
2023/07/04 09:30:40;;;;;;;;;;;20.10;65.10;;;;;;4013113;29;20379;-48
2023/07/04 09:33:23;;;;;;;;;;;20.10;64.90;;;;;;4014169;29;19935;-50
2023/07/04 09:36:04;;;;;;;;;;;20.10;64.70;;;;;;4002823;29;19931;-50
2023/07/04 09:38:52;;;;;;;;;;;20.10;64.50;;;;;;4014196;29;19930;-49
2023/07/04 09:41:34;;;;;;;;;;;20.10;64.30;;;;;;3998751;29;19935;-49
2023/07/04 09:44:20;;;;;;;;;;;20.10;64.30;;;;;;4005372;29;19931;-47
2023/07/04 09:47:02;;;;;;;;;;;20.10;64.30;;;;;;4011966;29;20643;-49
2023/07/04 09:49:44;;;;;;;;;;;20.20;64.50;;;;;;3998434;29;19944;-47
2023/07/04 09:52:26;;;;;;;;;;;20.20;64.50;;;;;;3998195;29;20391;-49
2023/07/04 09:55:08;;;;;;;;;;;20.20;65.40;;;;;;3997664;29;20490;-47
2023/07/04 09:57:49;;;;;;;;;;;20.20;64.50;;;;;;4017608;29;19939;-48
2023/07/04 10:00:29;;;;;;;;;;;20.20;64.30;;;;;;3998258;29;19931;-48
2023/07/04 10:03:10;;;;;;;;;;;20.30;65.10;;;;;;3998432;29;19971;-47
2023/07/04 10:05:53;;;;;;;;;;;20.30;64.00;;;;;;3999234;29;19935;-47
2023/07/04 10:08:48;;;;;;;;;;;20.30;63.70;;;;;;4013115;29;19931;-48
2023/07/04 10:11:32;;;;;;;;;;;20.40;64.70;;;;;;4012645;29;19935;-51
2023/07/04 10:14:14;;;;;;;;;;;20.40;64.50;;;;;;4013559;29;19931;-48
2023/07/04 10:16:55;;;;;;;;;;;20.40;63.40;;;;;;4012373;29;19939;-47
2023/07/04 10:19:40;;;;;;;;;;;20.30;64.40;;;;;;4006752;29;20303;-49
2023/07/04 10:22:26;;;;;;;;;;;20.30;63.60;;;;;;4013029;29;19931;-49
2023/07/04 10:25:10;;;;;;;;;;;20.30;63.70;;;;;;3997896;29;19934;-49
2023/07/04 10:27:52;;;;;;;;;;;20.40;63.80;;;;;;3997890;29;19931;-49
2023/07/04 10:30:36;;;;;;;;;;;20.40;63.40;;;;;;3998052;29;20490;-48
2023/07/04 10:33:19;;;;;;;;;;;20.40;63.20;;;;;;3997615;29;19939;-50
2023/07/04 10:36:00;;;;;;;;;;;20.40;62.90;;;;;;3998116;29;19947;-51
2023/07/04 10:38:43;;;;;;;;;;;20.40;62.60;;;;;;3998011;29;19947;-48
2023/07/04 10:41:26;;;;;;;;;;;20.40;62.00;;;;;;4007114;29;20390;-52
2023/07/04 10:44:10;;;;;;;;;;;20.40;61.80;;;;;;4012774;29;20288;-53
2023/07/04 10:46:54;;;;;;;;;;;20.50;61.50;;;;;;4001263;29;19947;-47
2023/07/04 10:49:38;;;;;;;;;;;20.50;62.10;;;;;;4012833;29;19935;-49
2023/07/04 10:52:20;;;;;;;;;;;20.50;61.30;;;;;;4012340;29;20329;-49
2023/07/04 10:55:03;;;;;;;;;;;20.50;61.30;;;;;;4012012;29;19931;-49
2023/07/04 10:57:46;;;;;;;;;;;20.60;61.40;;;;;;4012637;29;20343;-50
2023/07/04 11:00:28;;;;;;;;;;;20.60;61.20;;;;;;4012896;29;20296;-51
2023/07/04 11:03:14;;;;;;;;;;;20.60;61.30;;;;;;4010891;29;20035;-50
2023/07/04 11:05:55;;;;;;;;;;;20.60;61.10;;;;;;4012183;29;20011;-49
2023/07/04 11:08:37;;;;;;;;;;;20.70;61.00;;;;;;4012824;29;19939;-46
2023/07/04 11:11:24;;;;;;;;;;;20.70;60.80;;;;;;4012993;29;19931;-44
2023/07/04 11:14:07;;;;;;;;;;;20.60;60.50;;;;;;4012106;29;19931;-46
2023/07/04 11:16:47;;;;;;;;;;;20.70;60.30;;;;;;4012147;29;19972;-47
2023/07/04 11:19:30;;;;;;;;;;;20.70;60.90;;;;;;4012510;29;19935;-46
2023/07/04 11:22:14;;;;;;;;;;;20.70;59.70;;;;;;4011910;29;19975;-46
2023/07/04 11:24:55;;;;;;;;;;;20.70;59.60;;;;;;4012497;29;20279;-45
2023/07/04 11:27:38;;;;;;;;;;;20.80;59.70;;;;;;4012245;29;19935;-45
2023/07/04 11:30:32;;;;;;;;;;;20.80;59.60;;;;;;4012478;29;19947;-44
2023/07/04 11:33:32;;;;;;;;;;;20.80;59.40;;;;;;4010564;29;19931;-44
2023/07/04 11:36:17;;;;;;;;;;;20.80;58.90;;;;;;4011626;29;19935;-46
2023/07/04 11:38:58;;;;;;;;;;;20.80;58.70;;;;;;4002180;29;19966;-44
2023/07/04 11:41:40;;;;;;;;;;;20.80;59.60;;;;;;4011927;29;20064;-48
2023/07/04 11:44:27;;;;;;;;;;;20.80;58.80;;;;;;4007519;29;19935;-45
2023/07/04 11:47:10;;;;;;;;;;;20.80;58.80;;;;;;3996512;29;20044;-45
2023/07/04 11:49:55;;;;;;;;;;;20.80;58.70;;;;;;3995855;29;19934;-46
2023/07/04 11:52:37;;;;;;;;;;;20.80;58.60;;;;;;3997054;29;19976;-49
2023/07/04 11:55:18;;;;;;;;;;;20.80;58.80;;;;;;4000784;29;20315;-46
2023/07/04 11:58:02;;;;;;;;;;;20.80;58.80;;;;;;4012222;29;19951;-45
2023/07/04 12:01:03;;;;;;;;;;;20.80;58.70;;;;;;4011751;29;20340;-48
2023/07/04 12:03:48;;;;;;;;;;;20.80;58.60;;;;;;4010559;29;19996;-48
2023/07/04 12:06:47;;;;;;;;;;;20.80;58.70;;;;;;4011397;29;19931;-45
2023/07/04 12:09:35;;;;;;;;;;;20.80;58.90;;;;;;3995390;29;20026;-44
2023/07/04 12:12:22;;;;;;;;;;;20.80;58.90;;;;;;3996907;29;20280;-46
2023/07/04 12:15:08;;;;;;;;;;;20.80;59.60;;;;;;3997201;29;19931;-45
2023/07/04 12:17:50;;;;;;;;;;;20.80;58.70;;;;;;3996006;29;19972;-49
2023/07/04 12:20:31;;;;;;;;;;;20.80;58.70;;;;;;3999390;29;20292;-50
2023/07/04 12:23:12;;;;;;;;;;;20.80;58.80;;;;;;4002623;29;20422;-52
2023/07/04 12:25:55;;;;;;;;;;;20.80;59.50;;;;;;4004599;29;19935;-48
2023/07/04 12:28:36;;;;;;;;;;;20.90;58.90;;;;;;3996713;29;19932;-50
2023/07/04 12:31:17;;;;;;;;;;;20.90;58.60;;;;;;4002062;29;20587;-50
2023/07/04 12:34:04;;;;;;;;;;;20.90;59.10;;;;;;4011852;29;19935;-52
2023/07/04 12:36:47;;;;;;;;;;;20.90;58.10;;;;;;4011983;29;20015;-51
2023/07/04 12:39:44;;;;;;;;;;;21.00;58.10;;;;;;4010899;29;20304;-48
2023/07/04 12:42:26;;;;;;;;;;;21.00;58.00;;;;;;4011560;29;19935;-45
2023/07/04 12:45:09;;;;;;;;;;;21.00;58.00;;;;;;4011817;29;20494;-47
2023/07/04 12:47:51;;;;;;;;;;;21.00;58.10;;;;;;4012106;29;19935;-46
2023/07/04 12:50:38;;;;;;;;;;;21.00;58.00;;;;;;4011887;29;19960;-44
2023/07/04 12:53:19;;;;;;;;;;;21.00;58.70;;;;;;4012019;29;20020;-45
2023/07/04 12:56:01;;;;;;;;;;;21.10;57.90;;;;;;4011200;29;19935;-44
2023/07/04 12:58:43;;;;;;;;;;;21.10;58.40;;;;;;3996427;29;20477;-46
2023/07/04 13:01:25;;;;;;;;;;;21.10;57.60;;;;;;3995813;29;20397;-44
2023/07/04 13:04:08;;;;;;;;;;;21.10;57.70;;;;;;3995832;29;19936;-44
2023/07/04 13:06:52;;;;;;;;;;;21.10;57.60;;;;;;3996301;29;19931;-48
2023/07/04 13:09:33;;;;;;;;;;;21.10;57.80;;;;;;4007703;29;19935;-47
2023/07/04 13:12:14;;;;;;;;;;;21.10;57.80;;;;;;4011323;29;19967;-47
2023/07/04 13:15:04;;;;;;;;;;;21.10;57.90;;;;;;4011390;29;19940;-47
2023/07/04 13:17:55;;;;;;;;;;;21.20;57.90;;;;;;4010856;29;19934;-48
2023/07/04 13:20:38;;;;;;;;;;;21.20;57.70;;;;;;4011947;29;19939;-47
2023/07/04 13:23:21;;;;;;;;;;;21.20;57.40;;;;;;4013607;29;20474;-48
2023/07/04 13:26:17;;;;;;;;;;;21.20;57.10;;;;;;4014108;29;19935;-50
2023/07/04 13:28:58;;;;;;;;;;;21.20;56.80;;;;;;3998488;29;20288;-48
2023/07/04 13:31:42;;;;;;;;;;;21.20;56.50;;;;;;3998892;29;20008;-49
2023/07/04 13:34:29;;;;;;;;;;;21.20;56.90;;;;;;3999073;29;20063;-48
2023/07/04 13:37:11;;;;;;;;;;;21.20;56.20;;;;;;3998940;29;20321;-48
2023/07/04 13:39:53;;;;;;;;;;;21.30;57.00;;;;;;4010385;29;19935;-48
2023/07/04 13:42:35;;;;;;;;;;;21.30;56.10;;;;;;4013932;29;19934;-48
2023/07/04 13:45:16;;;;;;;;;;;21.30;55.90;;;;;;4013777;29;20324;-49
2023/07/04 13:47:57;;;;;;;;;;;21.30;55.60;;;;;;4013107;29;19956;-47
2023/07/04 13:50:38;;;;;;;;;;;21.30;55.50;;;;;;4013908;29;19931;-47
2023/07/04 13:53:18;;;;;;;;;;;21.40;55.30;;;;;;4013124;29;19950;-48
2023/07/04 13:56:01;;;;;;;;;;;21.40;55.90;;;;;;4013149;29;19931;-47
2023/07/04 13:58:42;;;;;;;;;;;21.40;55.30;;;;;;4013347;29;20288;-48
2023/07/04 14:01:22;;;;;;;;;;;21.40;55.40;;;;;;4012404;29;19931;-47
2023/07/04 14:04:05;;;;;;;;;;;21.40;56.00;;;;;;4012782;29;19931;-47
2023/07/04 14:06:51;;;;;;;;;;;21.40;55.40;;;;;;3997980;29;19932;-48
2023/07/04 14:09:33;;;;;;;;;;;21.40;55.40;;;;;;3998716;29;20012;-48
2023/07/04 14:12:14;;;;;;;;;;;21.40;55.50;;;;;;3997995;29;19932;-49
2023/07/04 14:14:55;;;;;;;;;;;21.40;55.40;;;;;;3998325;29;19935;-50
2023/07/04 14:17:39;;;;;;;;;;;21.40;55.50;;;;;;4005617;29;20066;-47
2023/07/04 14:20:41;;;;;;;;;;;21.40;55.50;;;;;;4012711;29;19935;-48
2023/07/04 14:23:22;;;;;;;;;;;21.40;55.30;;;;;;4013606;29;19935;-48
2023/07/04 14:26:03;;;;;;;;;;;21.40;55.30;;;;;;4013376;29;19935;-48
2023/07/04 14:28:45;;;;;;;;;;;21.40;55.30;;;;;;4013083;29;20024;-49
2023/07/04 14:31:26;;;;;;;;;;;21.40;55.30;;;;;;4012907;29;20291;-50
2023/07/04 14:34:06;;;;;;;;;;;21.40;55.40;;;;;;4013355;29;19931;-47
2023/07/04 14:36:47;;;;;;;;;;;21.40;55.40;;;;;;4012894;29;19947;-51
2023/07/04 14:39:28;;;;;;;;;;;21.40;56.20;;;;;;4013428;29;19935;-46
2023/07/04 14:42:13;;;;;;;;;;;21.40;55.50;;;;;;4012779;29;19935;-45
2023/07/04 14:45:12;;;;;;;;;;;21.50;55.60;;;;;;4012080;29;20035;-47
2023/07/04 14:47:53;;;;;;;;;;;21.50;55.70;;;;;;4012987;29;19947;-50
2023/07/04 14:50:34;;;;;;;;;;;21.50;55.70;;;;;;4012905;29;20315;-49
2023/07/04 14:53:15;;;;;;;;;;;21.50;55.70;;;;;;4013004;29;19950;-48
2023/07/04 14:55:59;;;;;;;;;;;21.50;56.20;;;;;;4012612;29;19935;-49
2023/07/04 14:58:40;;;;;;;;;;;21.50;56.40;;;;;;4001003;29;19935;-50
2023/07/04 15:01:22;;;;;;;;;;;21.50;57.10;;;;;;4011366;29;19987;-52
2023/07/04 15:04:04;;;;;;;;;;;21.60;56.30;;;;;;4001027;29;19934;-49
2023/07/04 15:06:44;;;;;;;;;;;21.60;56.20;;;;;;4012810;29;19931;-48
2023/07/04 15:09:27;;;;;;;;;;;21.60;56.00;;;;;;4012702;29;20299;-48
2023/07/04 15:12:07;;;;;;;;;;;21.60;56.00;;;;;;4011679;29;19931;-48
2023/07/04 15:14:49;;;;;;;;;;;21.60;56.10;;;;;;4012686;29;20391;-48
2023/07/04 15:17:32;;;;;;;;;;;21.60;56.10;;;;;;4012453;29;19991;-49
2023/07/04 15:20:13;;;;;;;;;;;21.60;55.80;;;;;;4012447;29;19935;-50
2023/07/04 15:22:54;;;;;;;;;;;21.60;55.80;;;;;;4012016;29;20391;-48
2023/07/04 15:25:35;;;;;;;;;;;21.60;55.60;;;;;;4011123;29;19935;-50
2023/07/04 15:28:16;;;;;;;;;;;21.60;55.60;;;;;;4011568;29;19954;-49
2023/07/04 15:30:57;;;;;;;;;;;21.60;55.40;;;;;;4011975;29;19931;-49
2023/07/04 15:33:39;;;;;;;;;;;21.60;55.40;;;;;;4011566;29;20288;-50
2023/07/04 15:36:21;;;;;;;;;;;21.60;55.30;;;;;;4011035;29;19935;-49
2023/07/04 15:39:01;;;;;;;;;;;21.60;55.30;;;;;;4011821;29;20399;-49
2023/07/04 15:41:42;;;;;;;;;;;21.60;56.20;;;;;;4011758;29;19931;-49
2023/07/04 15:44:24;;;;;;;;;;;21.60;55.30;;;;;;4011769;29;20391;-50